createdAt,value
2022-11-10T00:00:06.796Z,10.08
2022-11-10T00:04:36.780Z,10.03
2022-11-10T00:09:06.947Z,10.00
2022-11-10T00:13:58.128Z,9.95
2022-11-10T00:18:28.240Z,9.92
2022-11-10T00:22:58.189Z,9.89
2022-11-10T00:27:29.551Z,9.84
2022-11-10T00:31:59.685Z,9.82
2022-11-10T00:36:29.914Z,9.77
2022-11-10T00:41:01.354Z,9.74
2022-11-10T00:45:31.548Z,9.67
2022-11-10T00:50:01.460Z,9.63
2022-11-10T00:54:31.538Z,9.59
2022-11-10T00:59:01.532Z,9.55
2022-11-10T01:03:32.253Z,9.52
2022-11-10T01:08:02.228Z,9.48
2022-11-10T01:12:31.990Z,9.45
2022-11-10T01:17:01.875Z,9.42
2022-11-10T01:21:31.780Z,9.41
2022-11-10T01:26:06.768Z,9.39
2022-11-10T01:30:36.953Z,9.38
2022-11-10T01:35:07.652Z,9.36
2022-11-10T01:39:38.164Z,9.33
2022-11-10T01:44:21.780Z,9.33
2022-11-10T01:48:59.900Z,9.30
2022-11-10T01:53:32.678Z,9.27
2022-11-10T01:58:02.959Z,9.26
2022-11-10T02:02:42.582Z,9.24
2022-11-10T02:07:12.978Z,9.24
2022-11-10T02:11:44.152Z,9.25
2022-11-10T02:16:14.046Z,9.26
2022-11-10T02:20:47.412Z,9.26
2022-11-10T02:25:20.966Z,9.28
2022-11-10T02:29:51.007Z,9.26
2022-11-10T02:34:21.063Z,9.30
2022-11-10T02:38:50.997Z,9.36
2022-11-10T02:43:21.600Z,9.46
2022-11-10T02:47:52.067Z,9.53
2022-11-10T02:52:22.208Z,9.55
2022-11-10T02:56:52.217Z,9.58
2022-11-10T03:01:22.490Z,9.61
2022-11-10T03:05:52.492Z,9.60
2022-11-10T03:10:23.360Z,9.55
2022-11-10T03:14:53.390Z,9.52
2022-11-10T03:19:23.520Z,9.46
2022-11-10T03:23:53.789Z,9.40
2022-11-10T03:28:23.697Z,9.34
2022-11-10T03:32:53.628Z,9.29
2022-11-10T03:37:23.570Z,9.26
2022-11-10T03:41:53.701Z,9.22
2022-11-10T03:46:23.668Z,9.17
2022-11-10T03:50:53.611Z,9.14
2022-11-10T03:55:23.738Z,9.08
2022-11-10T03:59:53.713Z,9.06
2022-11-10T04:04:42.478Z,9.05
2022-11-10T04:09:12.675Z,9.01
2022-11-10T04:14:01.563Z,8.97
2022-11-10T04:18:32.050Z,8.94
2022-11-10T04:23:20.890Z,8.92
2022-11-10T04:27:51.108Z,8.89
2022-11-10T04:32:21.035Z,8.86
2022-11-10T04:36:51.244Z,8.85
2022-11-10T04:41:21.844Z,8.87
2022-11-10T04:45:52.510Z,8.87
2022-11-10T04:50:22.308Z,8.89
2022-11-10T04:54:52.460Z,8.96
2022-11-10T04:59:22.268Z,9.02
2022-11-10T05:03:52.922Z,9.01
2022-11-10T05:08:22.848Z,9.04
2022-11-10T05:12:54.751Z,9.05
2022-11-10T05:17:25.522Z,9.07
2022-11-10T05:21:55.451Z,9.05
2022-11-10T05:26:25.380Z,9.01
2022-11-10T05:30:55.227Z,9.00
2022-11-10T05:35:25.436Z,9.00
2022-11-10T05:39:55.264Z,8.99
2022-11-10T05:44:25.852Z,8.96
2022-11-10T05:48:55.866Z,8.92
2022-11-10T05:53:26.025Z,8.89
2022-11-10T05:57:57.718Z,8.88
2022-11-10T06:02:27.585Z,8.87
2022-11-10T06:06:57.376Z,8.86
2022-11-10T06:11:27.329Z,8.86
2022-11-10T06:15:57.244Z,8.84
2022-11-10T06:20:27.624Z,8.83
2022-11-10T06:24:57.749Z,8.80
2022-11-10T06:29:27.644Z,8.78
2022-11-10T06:33:57.817Z,8.81
2022-11-10T06:38:27.773Z,8.77
2022-11-10T06:42:58.263Z,8.78
2022-11-10T06:47:28.301Z,8.77
2022-11-10T06:51:58.314Z,8.79
2022-11-10T06:56:28.348Z,8.82
2022-11-10T07:01:01.941Z,8.84
2022-11-10T07:05:34.076Z,8.88
2022-11-10T07:10:06.947Z,8.92
2022-11-10T07:14:37.588Z,9.00
2022-11-10T07:19:07.504Z,9.07
2022-11-10T07:23:37.462Z,9.16
2022-11-10T07:28:10.450Z,9.25
2022-11-10T07:32:40.406Z,9.34
2022-11-10T07:37:10.237Z,9.42
2022-11-10T07:41:40.100Z,9.51
2022-11-10T07:46:10.377Z,9.62
2022-11-10T07:50:40.880Z,9.74
2022-11-10T07:55:10.897Z,9.88
2022-11-10T07:59:47.282Z,10.05
2022-11-10T08:04:17.340Z,10.25
2022-11-10T08:08:47.908Z,10.45
2022-11-10T08:13:17.798Z,10.62
2022-11-10T08:17:47.872Z,11.00
2022-11-10T08:22:17.799Z,11.79
2022-11-10T08:26:47.876Z,12.42
2022-11-10T08:31:17.736Z,13.19
2022-11-10T08:35:51.100Z,14.09
2022-11-10T08:40:22.079Z,14.93
2022-11-10T08:44:52.229Z,15.59
2022-11-10T08:49:22.272Z,16.25
2022-11-10T08:53:52.452Z,16.53
2022-11-10T08:58:24.487Z,16.82
2022-11-10T09:02:56.375Z,16.95
2022-11-10T09:07:26.961Z,16.96
2022-11-10T09:12:00.247Z,17.29
2022-11-10T09:16:30.564Z,17.86
2022-11-10T09:21:03.776Z,18.43
2022-11-10T09:25:34.008Z,18.70
2022-11-10T09:30:06.325Z,19.05
2022-11-10T09:34:37.335Z,19.41
2022-11-10T09:39:07.818Z,19.50
2022-11-10T09:43:58.008Z,19.76
2022-11-10T09:48:30.880Z,19.60
2022-11-10T09:53:02.144Z,19.54
2022-11-10T09:57:32.998Z,19.49
2022-11-10T10:02:12.722Z,19.39
2022-11-10T10:07:10.194Z,18.98
2022-11-10T10:11:56.958Z,18.64
2022-11-10T10:17:06.061Z,18.43
2022-11-10T10:22:23.658Z,18.76
2022-11-10T10:26:56.932Z,19.09
2022-11-10T10:31:34.040Z,19.12
2022-11-10T10:36:10.315Z,19.11
2022-11-10T10:40:41.825Z,18.96
2022-11-10T10:45:25.242Z,19.11
2022-11-10T10:50:16.653Z,18.98
2022-11-10T10:54:46.524Z,18.73
2022-11-10T10:59:22.988Z,18.51
2022-11-10T11:03:53.380Z,18.30
2022-11-10T11:08:23.609Z,18.35
2022-11-10T11:12:54.463Z,18.58
2022-11-10T11:17:24.703Z,18.81
2022-11-10T11:22:03.705Z,18.83
2022-11-10T11:26:53.869Z,18.73
2022-11-10T11:31:50.214Z,18.48
2022-11-10T11:36:38.987Z,18.75
2022-11-10T11:41:19.444Z,18.65
2022-11-10T11:45:59.652Z,18.50
2022-11-10T11:50:36.962Z,18.36
2022-11-10T11:55:20.073Z,18.29
2022-11-10T11:59:53.119Z,18.33
2022-11-10T12:04:59.612Z,18.43
2022-11-10T12:09:47.052Z,18.46
2022-11-10T12:14:25.477Z,18.61
2022-11-10T12:19:56.678Z,18.54
2022-11-10T12:24:27.070Z,18.24
2022-11-10T12:29:23.169Z,17.99
2022-11-10T12:34:18.264Z,17.89
2022-11-10T12:39:05.017Z,18.00
2022-11-10T12:43:42.458Z,17.97
2022-11-10T12:48:15.481Z,17.72
2022-11-10T12:52:53.555Z,17.51
2022-11-10T12:57:26.856Z,17.37
2022-11-10T13:02:18.923Z,17.23
2022-11-10T13:06:55.737Z,17.21
2022-11-10T13:11:32.942Z,17.22
2022-11-10T13:16:03.410Z,17.25
2022-11-10T13:20:39.574Z,17.51
2022-11-10T13:25:37.563Z,17.62
2022-11-10T13:30:10.329Z,17.54
2022-11-10T13:34:46.488Z,17.58
2022-11-10T13:39:19.772Z,17.46
2022-11-10T13:43:56.456Z,17.24
2022-11-10T13:48:44.877Z,17.02
2022-11-10T13:53:32.934Z,16.91
2022-11-10T13:58:06.188Z,16.77
2022-11-10T14:02:36.630Z,16.71
2022-11-10T14:07:17.465Z,16.66
2022-11-10T14:11:53.688Z,16.47
2022-11-10T14:16:26.221Z,16.45
2022-11-10T14:20:59.039Z,16.28
2022-11-10T14:25:37.023Z,16.17
2022-11-10T14:30:20.339Z,16.18
2022-11-10T14:34:53.916Z,16.13
2022-11-10T14:39:33.247Z,16.13
2022-11-10T14:44:06.059Z,15.98
2022-11-10T14:48:38.838Z,15.90
2022-11-10T14:53:21.539Z,15.87
2022-11-10T14:58:05.181Z,15.78
2022-11-10T15:02:35.494Z,15.73
2022-11-10T15:07:06.345Z,15.68
2022-11-10T15:12:07.452Z,15.55
2022-11-10T15:16:38.505Z,15.44
2022-11-10T15:21:12.633Z,15.33
2022-11-10T15:25:42.962Z,15.22
2022-11-10T15:30:23.009Z,15.08
2022-11-10T15:34:53.084Z,15.01
2022-11-10T15:39:26.538Z,14.89
2022-11-10T15:43:56.918Z,14.73
2022-11-10T15:48:36.934Z,14.61
2022-11-10T15:53:14.371Z,14.40
2022-11-10T15:57:44.500Z,14.26
2022-11-10T16:02:20.160Z,14.18
2022-11-10T16:06:50.195Z,14.10
2022-11-10T16:11:21.488Z,14.07
2022-11-10T16:15:52.515Z,14.02
2022-11-10T16:20:22.512Z,13.96
2022-11-10T16:24:52.603Z,13.90
2022-11-10T16:29:23.042Z,13.84
2022-11-10T16:33:57.395Z,13.82
2022-11-10T16:38:31.979Z,13.77
2022-11-10T16:43:02.241Z,13.70
2022-11-10T16:47:32.559Z,13.67
2022-11-10T16:52:10.927Z,13.64
2022-11-10T16:56:41.748Z,13.60
2022-11-10T17:01:19.029Z,13.48
2022-11-10T17:05:50.307Z,13.41
2022-11-10T17:10:21.744Z,13.30
2022-11-10T17:14:51.998Z,13.18
2022-11-10T17:19:25.315Z,13.02
2022-11-10T17:23:56.069Z,12.92
2022-11-10T17:28:26.268Z,12.86
2022-11-10T17:33:04.600Z,12.74
2022-11-10T17:37:35.560Z,12.64
2022-11-10T17:42:05.920Z,12.57
2022-11-10T17:46:36.099Z,12.43
2022-11-10T17:51:12.513Z,12.37
2022-11-10T17:55:42.674Z,12.23
2022-11-10T18:00:14.456Z,12.11
2022-11-10T18:04:44.381Z,12.02
2022-11-10T18:09:14.617Z,11.93
2022-11-10T18:13:45.022Z,11.90
2022-11-10T18:18:17.148Z,11.81
2022-11-10T18:22:47.112Z,11.79
2022-11-10T18:27:17.250Z,11.79
2022-11-10T18:31:47.753Z,11.86
2022-11-10T18:36:17.989Z,11.89
2022-11-10T18:40:48.180Z,11.80
2022-11-10T18:45:18.508Z,11.72
2022-11-10T18:49:48.680Z,11.68
2022-11-10T18:54:19.106Z,11.62
2022-11-10T18:58:56.735Z,11.51
2022-11-10T19:03:27.142Z,11.44
2022-11-10T19:07:57.489Z,11.43
2022-11-10T19:12:27.878Z,11.36
2022-11-10T19:16:58.130Z,11.31
2022-11-10T19:21:28.572Z,11.32
2022-11-10T19:26:03.556Z,11.28
2022-11-10T19:30:33.864Z,11.28
2022-11-10T19:35:04.495Z,11.22
2022-11-10T19:39:34.840Z,11.23
2022-11-10T19:44:05.248Z,11.35
2022-11-10T19:48:36.261Z,11.23
2022-11-10T19:53:06.628Z,11.21
2022-11-10T19:57:36.935Z,11.16
2022-11-10T20:02:13.349Z,11.09
2022-11-10T20:06:43.733Z,11.03
2022-11-10T20:11:17.921Z,11.04
2022-11-10T20:15:47.930Z,11.03
2022-11-10T20:20:18.662Z,11.02
2022-11-10T20:24:51.264Z,10.95
2022-11-10T20:29:21.700Z,10.97
2022-11-10T20:33:54.071Z,10.96
2022-11-10T20:38:24.132Z,10.97
2022-11-10T20:42:54.892Z,10.93
2022-11-10T20:47:27.910Z,10.95
2022-11-10T20:51:59.804Z,10.94
2022-11-10T20:56:30.488Z,10.94
2022-11-10T21:01:06.776Z,10.93
2022-11-10T21:05:36.841Z,10.94
2022-11-10T21:10:07.623Z,10.94
2022-11-10T21:14:37.742Z,10.87
2022-11-10T21:19:08.006Z,10.86
2022-11-10T21:23:39.458Z,10.81
2022-11-10T21:28:09.916Z,10.77
2022-11-10T21:32:40.143Z,10.77
2022-11-10T21:37:10.512Z,10.76
2022-11-10T21:41:40.966Z,10.73
2022-11-10T21:46:11.206Z,10.73
2022-11-10T21:50:41.132Z,10.72
2022-11-10T21:55:11.258Z,10.69
2022-11-10T21:59:41.658Z,10.62
2022-11-10T22:04:11.566Z,10.59
2022-11-10T22:08:43.599Z,10.56
2022-11-10T22:13:38.828Z,10.50
2022-11-10T22:18:35.781Z,10.46
2022-11-10T22:23:06.159Z,10.40
2022-11-10T22:27:36.277Z,10.35
2022-11-10T22:32:06.189Z,10.30
2022-11-10T22:36:36.428Z,10.26
2022-11-10T22:41:31.565Z,10.25
2022-11-10T22:46:02.717Z,10.20
2022-11-10T22:50:32.658Z,10.11
2022-11-10T22:55:02.593Z,10.05
2022-11-10T22:59:32.380Z,10.02
2022-11-10T23:04:03.133Z,9.98
2022-11-10T23:08:33.641Z,9.92
2022-11-10T23:13:03.739Z,9.92
2022-11-10T23:17:33.496Z,9.92
2022-11-10T23:22:03.429Z,9.90
2022-11-10T23:26:34.703Z,9.85
2022-11-10T23:31:09.055Z,9.85
2022-11-10T23:35:39.372Z,9.82
2022-11-10T23:40:10.025Z,9.77
2022-11-10T23:44:40.058Z,9.72
2022-11-10T23:49:10.079Z,9.67
2022-11-10T23:53:40.915Z,9.67
2022-11-10T23:58:11.109Z,9.65
